createdAt,value
2018-03-16T00:01:13.366Z,57.10
2018-03-16T00:03:40.909Z,57.80
2018-03-16T00:06:08.439Z,58.40
2018-03-16T00:08:36.005Z,58.90
2018-03-16T00:11:03.556Z,58.40
2018-03-16T00:13:31.862Z,58.00
2018-03-16T00:15:59.433Z,58.00
2018-03-16T00:18:26.980Z,57.90
2018-03-16T00:20:54.658Z,59.30
2018-03-16T00:23:22.221Z,59.80
2018-03-16T00:25:49.766Z,57.60
2018-03-16T00:28:17.307Z,58.20
2018-03-16T00:30:45.653Z,58.40
2018-03-16T00:33:13.203Z,58.30
2018-03-16T00:35:40.743Z,58.70
2018-03-16T00:38:08.292Z,59.10
2018-03-16T00:40:35.850Z,58.60
2018-03-16T00:43:03.374Z,59.20
2018-03-16T00:45:31.064Z,59.20
2018-03-16T00:47:58.599Z,59.00
2018-03-16T00:50:26.147Z,58.40
2018-03-16T00:52:53.705Z,59.80
2018-03-16T00:55:22.006Z,59.00
2018-03-16T00:57:49.915Z,58.80
2018-03-16T01:00:17.488Z,59.70
2018-03-16T01:02:45.030Z,59.50
2018-03-16T01:05:12.558Z,59.40
2018-03-16T01:07:40.094Z,59.40
2018-03-16T01:10:07.621Z,59.80
2018-03-16T01:12:35.180Z,59.90
2018-03-16T01:15:02.719Z,59.70
2018-03-16T01:17:30.261Z,61.60
2018-03-16T01:19:57.798Z,61.60
2018-03-16T01:22:25.343Z,61.30
2018-03-16T01:24:53.664Z,63.70
2018-03-16T01:27:21.200Z,63.40
2018-03-16T01:29:49.486Z,62.60
2018-03-16T01:32:17.088Z,62.20
2018-03-16T01:34:44.631Z,63.90
2018-03-16T01:37:12.162Z,63.60
2018-03-16T01:39:39.761Z,63.60
2018-03-16T01:42:07.301Z,65.30
2018-03-16T01:44:34.834Z,64.00
2018-03-16T01:47:02.409Z,66.40
2018-03-16T01:49:29.930Z,65.80
2018-03-16T01:51:58.236Z,64.30
2018-03-16T01:54:25.793Z,64.10
2018-03-16T01:56:53.322Z,65.60
2018-03-16T01:59:20.848Z,65.40
2018-03-16T02:01:48.398Z,66.00
2018-03-16T02:04:15.926Z,65.30
2018-03-16T02:06:43.461Z,65.60
2018-03-16T02:09:11.027Z,66.10
2018-03-16T02:11:39.321Z,66.20
2018-03-16T02:14:06.850Z,66.10
2018-03-16T02:16:34.391Z,66.40
2018-03-16T02:19:01.931Z,66.50
2018-03-16T02:21:29.499Z,66.90
2018-03-16T02:23:57.022Z,67.40
2018-03-16T02:26:24.550Z,67.00
2018-03-16T02:28:52.845Z,66.40
2018-03-16T02:31:21.146Z,67.80
2018-03-16T02:33:48.702Z,67.50
2018-03-16T02:36:16.227Z,66.90
2018-03-16T02:38:43.767Z,68.40
2018-03-16T02:41:11.604Z,68.30
2018-03-16T02:43:39.139Z,67.70
2018-03-16T02:46:06.680Z,68.20
2018-03-16T02:48:34.247Z,69.00
2018-03-16T02:51:01.787Z,67.30
2018-03-16T02:53:29.327Z,67.40
2018-03-16T02:55:57.278Z,68.90
2018-03-16T02:58:24.802Z,69.00
2018-03-16T03:00:52.343Z,69.20
2018-03-16T03:03:19.916Z,68.70
2018-03-16T03:05:47.446Z,69.00
2018-03-16T03:08:14.992Z,68.90
2018-03-16T03:10:42.546Z,69.10
2018-03-16T03:13:10.090Z,70.00
2018-03-16T03:15:37.633Z,69.70
2018-03-16T03:18:05.328Z,69.80
2018-03-16T03:20:32.864Z,70.50
2018-03-16T03:23:00.420Z,70.30
2018-03-16T03:25:27.950Z,70.00
2018-03-16T03:27:55.476Z,70.30
2018-03-16T03:30:23.211Z,70.40
2018-03-16T03:32:50.741Z,71.10
2018-03-16T03:35:18.285Z,71.50
2018-03-16T03:37:45.817Z,71.30
2018-03-16T03:40:13.339Z,71.90
2018-03-16T03:42:40.879Z,70.80
2018-03-16T03:45:08.465Z,70.90
2018-03-16T03:47:36.004Z,70.30
2018-03-16T03:50:03.557Z,71.00
2018-03-16T03:52:31.966Z,71.40
2018-03-16T03:54:59.507Z,71.50
2018-03-16T03:57:27.038Z,70.90
2018-03-16T03:59:54.594Z,71.70
2018-03-16T04:02:22.895Z,71.20
2018-03-16T04:04:50.438Z,71.20
2018-03-16T04:07:18.733Z,71.70
2018-03-16T04:09:46.275Z,71.60
2018-03-16T04:12:14.582Z,70.90
2018-03-16T04:14:42.120Z,70.80
2018-03-16T04:17:09.673Z,70.50
2018-03-16T04:19:37.215Z,70.00
2018-03-16T04:22:04.754Z,70.00
2018-03-16T04:24:32.306Z,70.30
2018-03-16T04:26:59.839Z,70.50
2018-03-16T04:29:27.717Z,69.80
2018-03-16T04:31:55.245Z,69.40
2018-03-16T04:34:22.785Z,69.90
2018-03-16T04:36:50.331Z,69.90
2018-03-16T04:39:17.866Z,68.60
2018-03-16T04:41:45.425Z,69.10
2018-03-16T04:44:12.960Z,69.10
2018-03-16T04:46:40.488Z,68.70
2018-03-16T04:49:08.048Z,68.70
2018-03-16T04:51:36.345Z,69.20
2018-03-16T04:54:03.866Z,69.20
2018-03-16T04:56:31.431Z,68.40
2018-03-16T04:58:58.971Z,67.90
2018-03-16T05:01:26.512Z,68.90
2018-03-16T05:03:54.101Z,69.40
2018-03-16T05:06:22.415Z,68.90
2018-03-16T05:08:49.942Z,68.70
2018-03-16T05:11:18.262Z,67.70
2018-03-16T05:13:45.796Z,67.90
2018-03-16T05:16:13.326Z,67.90
2018-03-16T05:18:40.906Z,68.20
2018-03-16T05:21:09.211Z,67.50
2018-03-16T05:23:36.742Z,67.30
2018-03-16T05:26:05.086Z,67.30
2018-03-16T05:28:32.621Z,66.90
2018-03-16T05:31:00.149Z,66.40
2018-03-16T05:33:27.719Z,66.50
2018-03-16T05:35:55.270Z,66.90
2018-03-16T05:38:23.581Z,66.50
2018-03-16T05:40:51.158Z,66.40
2018-03-16T05:43:18.708Z,65.90
2018-03-16T05:45:46.256Z,65.30
2018-03-16T05:48:13.828Z,65.30
2018-03-16T05:50:41.373Z,65.20
2018-03-16T05:53:08.918Z,65.70
2018-03-16T05:55:36.499Z,66.00
2018-03-16T05:58:04.030Z,64.70
2018-03-16T06:00:31.568Z,65.90
2018-03-16T06:02:59.140Z,63.80
2018-03-16T06:05:27.449Z,63.90
2018-03-16T06:07:54.986Z,63.70
2018-03-16T06:10:22.537Z,63.90
2018-03-16T06:12:50.095Z,63.70
2018-03-16T06:15:17.639Z,63.00
2018-03-16T06:17:45.366Z,63.20
2018-03-16T06:20:12.901Z,64.40
2018-03-16T06:22:40.450Z,62.10
2018-03-16T06:25:07.986Z,61.10
2018-03-16T06:27:35.537Z,62.00
2018-03-16T06:30:03.099Z,62.30
2018-03-16T06:32:30.642Z,60.90
2018-03-16T06:34:58.202Z,59.50
2018-03-16T06:37:25.743Z,60.00
2018-03-16T06:39:53.285Z,60.50
2018-03-16T06:42:21.006Z,59.20
2018-03-16T06:44:48.679Z,59.10
2018-03-16T06:47:16.171Z,59.40
2018-03-16T06:49:43.710Z,60.00
2018-03-16T06:52:11.228Z,58.90
2018-03-16T06:54:39.088Z,58.40
2018-03-16T06:57:06.598Z,57.40
2018-03-16T06:59:34.123Z,58.30
2018-03-16T07:02:02.677Z,57.80
2018-03-16T07:04:30.214Z,57.70
2018-03-16T07:06:57.755Z,57.70
2018-03-16T07:09:25.414Z,57.80
2018-03-16T07:11:52.942Z,56.10
2018-03-16T07:14:20.479Z,56.90
2018-03-16T07:16:48.034Z,56.90
2018-03-16T07:19:15.574Z,56.40
2018-03-16T07:21:43.095Z,55.40
2018-03-16T07:24:10.688Z,54.70
2018-03-16T07:26:38.220Z,55.40
2018-03-16T07:29:06.506Z,54.40
2018-03-16T07:31:34.072Z,54.30
2018-03-16T07:34:01.590Z,54.50
2018-03-16T07:36:29.121Z,55.80
2018-03-16T07:38:56.684Z,54.20
2018-03-16T07:41:24.202Z,54.50
2018-03-16T07:43:51.737Z,53.90
2018-03-16T07:46:19.278Z,54.10
2018-03-16T07:48:46.805Z,54.40
2018-03-16T07:51:14.334Z,54.20
2018-03-16T07:53:41.857Z,52.90
2018-03-16T07:56:09.379Z,53.00
2018-03-16T07:58:36.906Z,52.60
2018-03-16T08:01:04.503Z,50.80
2018-03-16T08:03:32.750Z,50.80
2018-03-16T08:06:00.275Z,50.60
2018-03-16T08:08:27.793Z,51.50
2018-03-16T08:10:55.312Z,50.40
2018-03-16T08:13:22.856Z,51.40
2018-03-16T08:15:50.384Z,51.10
2018-03-16T08:18:17.912Z,51.90
2018-03-16T08:20:45.439Z,50.60
2018-03-16T08:23:12.967Z,49.10
2018-03-16T08:25:40.523Z,50.50
2018-03-16T08:28:08.054Z,49.30
2018-03-16T08:30:35.588Z,50.20
2018-03-16T08:33:03.114Z,48.00
2018-03-16T08:35:30.639Z,49.30
2018-03-16T08:37:58.199Z,48.30
2018-03-16T08:40:25.732Z,48.50
2018-03-16T08:42:53.272Z,49.00
2018-03-16T08:45:20.831Z,47.30
2018-03-16T08:47:49.133Z,47.70
2018-03-16T08:50:16.691Z,47.60
2018-03-16T08:52:44.223Z,46.90
2018-03-16T08:55:12.511Z,47.70
2018-03-16T08:57:40.837Z,46.00
2018-03-16T09:00:08.353Z,46.10
2018-03-16T09:02:36.637Z,45.20
2018-03-16T09:05:04.225Z,45.30
2018-03-16T09:07:31.746Z,45.00
2018-03-16T09:09:59.269Z,45.50
2018-03-16T09:12:26.838Z,45.30
2018-03-16T09:14:54.355Z,44.00
2018-03-16T09:17:21.877Z,43.90
2018-03-16T09:19:49.422Z,45.00
2018-03-16T09:22:16.989Z,44.70
2018-03-16T09:24:45.277Z,45.30
2018-03-16T09:27:12.834Z,44.90
2018-03-16T09:29:41.136Z,44.80
2018-03-16T09:32:08.799Z,44.70
2018-03-16T09:34:36.321Z,43.90
2018-03-16T09:37:03.852Z,44.20
2018-03-16T09:39:31.457Z,44.40
2018-03-16T09:41:58.959Z,43.60
2018-03-16T09:44:26.487Z,44.20
2018-03-16T09:46:54.019Z,43.50
2018-03-16T09:49:22.318Z,43.80
2018-03-16T09:51:50.739Z,43.50
2018-03-16T09:54:18.272Z,42.80
2018-03-16T09:56:45.804Z,43.70
2018-03-16T09:59:13.340Z,44.10
2018-03-16T10:01:40.867Z,42.80
2018-03-16T10:04:08.419Z,43.60
2018-03-16T10:06:35.929Z,41.20
2018-03-16T10:09:04.282Z,43.80
2018-03-16T10:11:31.834Z,43.80
2018-03-16T10:13:59.362Z,41.80
2018-03-16T10:16:26.892Z,39.60
2018-03-16T10:18:55.322Z,40.90
2018-03-16T10:21:22.960Z,40.70
2018-03-16T10:23:50.516Z,40.10
2018-03-16T10:26:18.211Z,38.20
2018-03-16T10:28:45.751Z,40.70
2018-03-16T10:31:13.279Z,38.80
2018-03-16T10:33:40.806Z,39.10
2018-03-16T10:36:08.353Z,38.60
2018-03-16T10:38:35.888Z,38.60
2018-03-16T10:41:03.429Z,38.60
2018-03-16T10:43:30.987Z,38.50
2018-03-16T10:45:58.517Z,39.10
2018-03-16T10:48:26.047Z,42.00
2018-03-16T10:50:53.617Z,36.90
2018-03-16T10:53:21.165Z,39.30
2018-03-16T10:55:48.705Z,40.00
2018-03-16T10:58:16.235Z,39.30
2018-03-16T11:00:49.505Z,39.40
2018-03-16T11:03:17.866Z,39.50
2018-03-16T11:05:51.123Z,39.10
2018-03-16T11:08:24.281Z,38.80
2018-03-16T11:10:51.833Z,38.70
2018-03-16T11:13:19.390Z,39.00
2018-03-16T11:15:47.709Z,37.30
2018-03-16T11:18:15.248Z,37.20
2018-03-16T11:20:42.784Z,38.70
2018-03-16T11:23:10.350Z,36.80
2018-03-16T11:25:38.647Z,38.00
2018-03-16T11:28:06.184Z,38.10
2018-03-16T11:30:34.524Z,37.40
2018-03-16T11:33:02.042Z,37.10
2018-03-16T11:35:29.562Z,38.00
2018-03-16T11:37:57.507Z,38.70
2018-03-16T11:40:25.056Z,37.40
2018-03-16T11:42:52.583Z,38.00
2018-03-16T11:45:20.162Z,39.50
2018-03-16T11:47:47.692Z,36.80
2018-03-16T11:50:15.978Z,37.70
2018-03-16T11:52:43.506Z,37.40
2018-03-16T11:55:11.032Z,39.30
2018-03-16T11:57:38.592Z,38.20
2018-03-16T12:00:06.119Z,39.10
2018-03-16T12:02:33.648Z,39.40
2018-03-16T12:05:01.190Z,37.60
2018-03-16T12:07:28.717Z,38.50
2018-03-16T12:09:56.247Z,37.60
2018-03-16T12:12:23.804Z,37.80
2018-03-16T12:14:52.107Z,36.10
2018-03-16T12:17:19.636Z,36.00
2018-03-16T12:19:47.954Z,35.70
2018-03-16T12:22:15.475Z,35.60
2018-03-16T12:24:43.761Z,35.80
2018-03-16T12:27:11.286Z,35.80
2018-03-16T12:29:38.812Z,36.30
2018-03-16T12:32:06.348Z,36.00
2018-03-16T12:34:33.919Z,37.70
2018-03-16T12:37:01.454Z,38.10
2018-03-16T12:39:29.771Z,38.40
2018-03-16T12:41:57.504Z,39.20
2018-03-16T12:44:25.035Z,40.00
2018-03-16T12:46:52.570Z,40.50
2018-03-16T12:49:20.187Z,39.90
2018-03-16T12:51:47.710Z,39.90
2018-03-16T12:54:15.243Z,38.60
2018-03-16T12:56:42.761Z,39.20
2018-03-16T12:59:10.308Z,38.00
2018-03-16T13:01:37.839Z,39.50
2018-03-16T13:04:05.366Z,38.40
2018-03-16T13:06:32.920Z,40.80
2018-03-16T13:09:00.454Z,40.70
2018-03-16T13:11:27.987Z,36.80
2018-03-16T13:13:55.594Z,39.70
2018-03-16T13:16:23.112Z,39.50
2018-03-16T13:18:50.641Z,40.40
2018-03-16T13:21:18.200Z,39.20
2018-03-16T13:23:45.775Z,37.40
2018-03-16T13:26:13.295Z,37.40
2018-03-16T13:28:40.813Z,37.40
2018-03-16T13:31:09.111Z,38.30
2018-03-16T13:33:36.638Z,38.00
2018-03-16T13:36:04.366Z,40.10
2018-03-16T13:38:31.892Z,40.30
2018-03-16T13:40:59.589Z,40.00
2018-03-16T13:43:27.114Z,41.00
2018-03-16T13:45:54.643Z,40.40
2018-03-16T13:48:22.206Z,41.60
2018-03-16T13:50:49.726Z,43.70
2018-03-16T13:53:17.246Z,41.50
2018-03-16T13:55:44.793Z,40.40
2018-03-16T13:58:12.332Z,41.30
2018-03-16T14:00:39.852Z,41.60
2018-03-16T14:03:07.402Z,40.40
2018-03-16T14:05:34.963Z,39.70
2018-03-16T14:08:02.490Z,40.00
2018-03-16T14:10:30.019Z,42.00
2018-03-16T14:12:57.571Z,41.90
2018-03-16T14:15:25.123Z,41.40
2018-03-16T14:17:52.634Z,41.90
2018-03-16T14:20:20.175Z,41.40
2018-03-16T14:22:48.504Z,41.30
2018-03-16T14:25:16.036Z,41.30
2018-03-16T14:27:43.568Z,42.10
2018-03-16T14:30:11.146Z,42.10
2018-03-16T14:32:38.687Z,42.30
2018-03-16T14:35:06.984Z,41.60
2018-03-16T14:37:34.842Z,42.20
2018-03-16T14:40:03.138Z,42.10
2018-03-16T14:42:30.668Z,42.10
2018-03-16T14:44:58.966Z,43.30
2018-03-16T14:47:26.525Z,43.30
2018-03-16T14:49:54.063Z,42.60
2018-03-16T14:52:21.595Z,43.40
2018-03-16T14:54:49.155Z,45.20
2018-03-16T14:57:16.682Z,43.70
2018-03-16T14:59:44.229Z,44.00
2018-03-16T15:02:11.790Z,43.90
2018-03-16T15:04:39.339Z,44.10
2018-03-16T15:07:06.951Z,44.10
2018-03-16T15:09:34.492Z,45.00
2018-03-16T15:12:02.028Z,44.90
2018-03-16T15:14:29.601Z,44.50
2018-03-16T15:16:57.122Z,45.80
2018-03-16T15:19:24.650Z,44.90
2018-03-16T15:21:52.206Z,46.00
2018-03-16T15:24:19.743Z,45.20
2018-03-16T15:26:47.269Z,45.30
2018-03-16T15:29:14.835Z,45.90
2018-03-16T15:31:42.369Z,45.60
2018-03-16T15:34:09.897Z,45.50
2018-03-16T15:36:37.590Z,46.40
2018-03-16T15:39:05.866Z,46.40
2018-03-16T15:41:34.170Z,46.20
2018-03-16T15:44:01.725Z,46.10
2018-03-16T15:46:30.032Z,47.20
2018-03-16T15:48:57.566Z,47.10
2018-03-16T15:51:25.254Z,45.80
2018-03-16T15:53:52.790Z,46.60
2018-03-16T15:56:20.319Z,47.50
2018-03-16T15:58:48.254Z,45.80
2018-03-16T16:01:15.807Z,46.60
2018-03-16T16:03:43.345Z,47.60
2018-03-16T16:06:10.887Z,46.00
2018-03-16T16:08:38.427Z,46.10
2018-03-16T16:11:06.763Z,47.10
2018-03-16T16:13:34.304Z,47.00
2018-03-16T16:16:01.856Z,47.40
2018-03-16T16:18:29.437Z,47.20
2018-03-16T16:20:56.976Z,47.30
2018-03-16T16:23:24.544Z,46.70
2018-03-16T16:25:52.124Z,47.10
2018-03-16T16:28:19.668Z,47.00
2018-03-16T16:30:47.216Z,48.90
2018-03-16T16:33:14.804Z,48.30
2018-03-16T16:35:42.358Z,49.60
2018-03-16T16:38:09.891Z,48.70
2018-03-16T16:40:37.440Z,48.50
2018-03-16T16:43:04.993Z,48.00
2018-03-16T16:45:33.338Z,48.10
2018-03-16T16:48:00.867Z,48.90
2018-03-16T16:50:28.412Z,47.40
2018-03-16T16:52:56.008Z,49.00
2018-03-16T16:55:23.542Z,47.80
2018-03-16T16:57:51.084Z,48.20
2018-03-16T17:00:18.638Z,49.40
2018-03-16T17:02:46.171Z,49.60
2018-03-16T17:05:14.523Z,49.00
2018-03-16T17:07:42.140Z,48.70
2018-03-16T17:10:09.727Z,49.00
2018-03-16T17:12:37.272Z,49.80
2018-03-16T17:15:04.848Z,50.10
2018-03-16T17:17:32.371Z,50.00
2018-03-16T17:19:59.913Z,49.80
2018-03-16T17:22:28.238Z,50.80
2018-03-16T17:24:55.787Z,50.80
2018-03-16T17:27:23.327Z,51.90
2018-03-16T17:29:50.908Z,53.30
2018-03-16T17:32:24.175Z,50.30
2018-03-16T17:34:46.026Z,49.50
2018-03-16T17:37:13.593Z,51.00
2018-03-16T17:39:41.127Z,51.60
2018-03-16T17:42:08.664Z,53.00
2018-03-16T17:44:36.226Z,53.50
2018-03-16T17:47:03.758Z,52.20
2018-03-16T17:49:31.321Z,52.60
2018-03-16T17:51:59.124Z,51.90
2018-03-16T17:54:26.660Z,51.00
2018-03-16T17:56:54.200Z,52.20
2018-03-16T17:59:21.743Z,52.40
2018-03-16T18:01:49.307Z,51.80
2018-03-16T18:04:16.869Z,53.70
2018-03-16T18:06:44.453Z,52.10
2018-03-16T18:09:12.817Z,51.90
2018-03-16T18:11:41.122Z,51.40
2018-03-16T18:14:09.442Z,52.20
2018-03-16T18:16:37.021Z,52.20
2018-03-16T18:19:04.561Z,50.00
2018-03-16T18:21:32.136Z,51.00
2018-03-16T18:23:59.914Z,51.00
2018-03-16T18:26:27.465Z,52.70
2018-03-16T18:28:55.028Z,52.50
2018-03-16T18:31:22.619Z,51.50
2018-03-16T18:33:50.919Z,52.40
2018-03-16T18:36:18.467Z,52.40
2018-03-16T18:38:46.808Z,52.70
2018-03-16T18:41:14.378Z,52.80
2018-03-16T18:43:42.835Z,51.30
2018-03-16T18:46:10.400Z,51.30
2018-03-16T18:48:38.131Z,53.00
2018-03-16T18:51:05.926Z,52.20
2018-03-16T18:53:33.480Z,52.60
2018-03-16T18:56:01.013Z,53.10
2018-03-16T18:58:28.570Z,52.00
2018-03-16T19:00:56.102Z,50.40
2018-03-16T19:03:24.403Z,51.80
2018-03-16T19:05:52.045Z,51.70
2018-03-16T19:08:19.579Z,50.60
2018-03-16T19:10:47.121Z,51.90
2018-03-16T19:13:14.716Z,49.90
2018-03-16T19:15:42.275Z,51.10
2018-03-16T19:18:09.807Z,49.90
2018-03-16T19:20:37.568Z,52.00
2018-03-16T19:23:05.104Z,50.80
2018-03-16T19:25:32.638Z,51.70
2018-03-16T19:28:00.184Z,52.10
2018-03-16T19:30:27.728Z,50.50
2018-03-16T19:32:55.283Z,51.30
2018-03-16T19:35:23.590Z,51.00
2018-03-16T19:37:51.910Z,51.40
2018-03-16T19:40:19.468Z,51.40
2018-03-16T19:42:47.113Z,52.40
2018-03-16T19:45:14.663Z,52.80
2018-03-16T19:47:42.246Z,52.70
2018-03-16T19:50:09.794Z,53.30
2018-03-16T19:52:37.336Z,54.30
2018-03-16T19:55:04.914Z,53.00
2018-03-16T19:57:32.468Z,53.00
2018-03-16T20:00:00.143Z,53.80
2018-03-16T20:02:27.720Z,52.50
2018-03-16T20:04:55.251Z,52.20
2018-03-16T20:07:22.806Z,52.40
2018-03-16T20:09:50.390Z,52.70
2018-03-16T20:12:17.995Z,53.50
2018-03-16T20:14:46.551Z,51.50
2018-03-16T20:17:14.383Z,51.50
2018-03-16T20:19:41.920Z,51.70
2018-03-16T20:22:09.484Z,52.30
2018-03-16T20:24:37.059Z,51.40
2018-03-16T20:27:04.879Z,51.80
2018-03-16T20:29:32.444Z,52.40
2018-03-16T20:32:00.015Z,49.90
2018-03-16T20:34:27.570Z,51.30
2018-03-16T20:36:56.822Z,50.80
2018-03-16T20:39:24.360Z,50.70
2018-03-16T20:41:51.907Z,50.30
2018-03-16T20:44:19.492Z,50.90
2018-03-16T20:46:47.033Z,49.60
2018-03-16T20:49:14.586Z,50.50
2018-03-16T20:51:42.148Z,51.10
2018-03-16T20:54:09.684Z,48.40
2018-03-16T20:56:37.228Z,50.30
2018-03-16T20:59:04.808Z,49.40
2018-03-16T21:01:33.107Z,49.10
2018-03-16T21:04:00.647Z,49.20
2018-03-16T21:06:28.224Z,49.70
2018-03-16T21:08:55.775Z,48.80
2018-03-16T21:11:23.320Z,49.50
2018-03-16T21:13:51.650Z,47.90
2018-03-16T21:16:19.178Z,47.90
2018-03-16T21:18:46.715Z,48.50
2018-03-16T21:21:14.291Z,50.30
2018-03-16T21:23:41.846Z,49.00
2018-03-16T21:26:09.398Z,48.50
2018-03-16T21:28:36.946Z,48.00
2018-03-16T21:31:04.522Z,48.00
2018-03-16T21:33:32.047Z,48.60
2018-03-16T21:35:59.589Z,49.00
2018-03-16T21:38:27.178Z,48.50
2018-03-16T21:40:54.751Z,48.40
2018-03-16T21:43:22.297Z,48.40
2018-03-16T21:45:49.983Z,48.90
2018-03-16T21:48:17.525Z,48.00
2018-03-16T21:50:45.063Z,49.40
2018-03-16T21:53:12.638Z,48.90
2018-03-16T21:55:40.167Z,50.50
2018-03-16T21:58:07.707Z,49.70
2018-03-16T22:00:35.285Z,49.80
2018-03-16T22:03:02.844Z,50.50
2018-03-16T22:05:30.366Z,49.90
2018-03-16T22:07:57.939Z,50.50
2018-03-16T22:10:25.480Z,50.90
2018-03-16T22:12:53.021Z,49.00
2018-03-16T22:15:20.583Z,50.40
2018-03-16T22:17:48.886Z,50.70
2018-03-16T22:20:16.428Z,50.60
2018-03-16T22:22:44.743Z,49.40
2018-03-16T22:25:12.652Z,49.50
2018-03-16T22:27:40.244Z,49.60
2018-03-16T22:30:07.774Z,50.00
2018-03-16T22:32:35.312Z,49.30
2018-03-16T22:35:02.875Z,49.80
2018-03-16T22:37:31.918Z,50.90
2018-03-16T22:39:59.455Z,50.90
2018-03-16T22:42:27.798Z,50.00
2018-03-16T22:44:55.322Z,50.10
2018-03-16T22:47:22.841Z,51.00
2018-03-16T22:49:50.415Z,51.50
2018-03-16T22:52:17.974Z,52.40
2018-03-16T22:54:46.318Z,51.10
2018-03-16T22:57:13.905Z,51.00
2018-03-16T22:59:41.440Z,51.40
2018-03-16T23:02:08.984Z,52.40
2018-03-16T23:04:36.559Z,51.20
2018-03-16T23:07:04.098Z,52.10
2018-03-16T23:09:31.626Z,53.00
2018-03-16T23:11:59.166Z,53.00
2018-03-16T23:14:27.499Z,52.90
2018-03-16T23:16:55.036Z,52.80
2018-03-16T23:19:22.566Z,53.70
2018-03-16T23:21:50.143Z,52.90
2018-03-16T23:24:17.681Z,52.70
2018-03-16T23:26:45.982Z,53.40
2018-03-16T23:29:13.542Z,53.20
2018-03-16T23:31:41.072Z,52.90
2018-03-16T23:34:08.602Z,53.90
2018-03-16T23:36:36.171Z,53.20
2018-03-16T23:39:03.763Z,53.20
2018-03-16T23:41:31.312Z,54.00
2018-03-16T23:43:58.910Z,53.30
2018-03-16T23:46:26.446Z,53.50
2018-03-16T23:48:53.994Z,53.80
2018-03-16T23:51:21.522Z,54.10
2018-03-16T23:53:49.055Z,54.10
2018-03-16T23:56:16.586Z,54.10
2018-03-16T23:58:44.274Z,53.50
